createdAt,value
2022-08-29T00:00:48.090Z,995.44
2022-08-29T00:01:48.613Z,995.45
2022-08-29T00:02:48.301Z,995.45
2022-08-29T00:03:48.273Z,995.46
2022-08-29T00:04:48.162Z,995.41
2022-08-29T00:05:50.309Z,995.41
2022-08-29T00:06:48.197Z,995.43
2022-08-29T00:07:48.210Z,995.42
2022-08-29T00:08:48.401Z,995.44
2022-08-29T00:09:48.314Z,995.46
2022-08-29T00:10:48.179Z,995.43
2022-08-29T00:11:48.209Z,995.41
2022-08-29T00:12:48.475Z,995.41
2022-08-29T00:13:48.237Z,995.37
2022-08-29T00:14:48.302Z,995.36
2022-08-29T00:15:48.272Z,995.38
2022-08-29T00:16:48.437Z,995.34
2022-08-29T00:17:48.109Z,995.34
2022-08-29T00:18:48.297Z,995.36
2022-08-29T00:19:48.143Z,995.45
2022-08-29T00:20:48.101Z,995.44
2022-08-29T00:21:48.289Z,995.44
2022-08-29T00:22:48.094Z,995.41
2022-08-29T00:23:48.057Z,995.45
2022-08-29T00:24:48.240Z,995.45
2022-08-29T00:25:48.128Z,995.46
2022-08-29T00:26:48.081Z,995.45
2022-08-29T00:27:49.620Z,995.49
2022-08-29T00:28:48.288Z,995.49
2022-08-29T00:29:48.269Z,995.50
2022-08-29T00:30:48.059Z,995.50
2022-08-29T00:31:48.082Z,995.51
2022-08-29T00:32:48.232Z,995.54
2022-08-29T00:33:48.158Z,995.51
2022-08-29T00:34:48.034Z,995.54
2022-08-29T00:35:48.192Z,995.53
2022-08-29T00:36:49.350Z,995.52
2022-08-29T00:37:48.027Z,995.54
2022-08-29T00:38:47.986Z,995.53
2022-08-29T00:39:47.953Z,995.50
2022-08-29T00:40:51.288Z,995.51
2022-08-29T00:41:48.015Z,995.53
2022-08-29T00:42:48.549Z,995.54
2022-08-29T00:43:48.081Z,995.49
2022-08-29T00:44:48.115Z,995.49
2022-08-29T00:45:48.788Z,995.50
2022-08-29T00:46:48.042Z,995.49
2022-08-29T00:47:47.935Z,995.51
2022-08-29T00:48:47.959Z,995.50
2022-08-29T00:49:48.044Z,995.55
2022-08-29T00:50:48.001Z,995.54
2022-08-29T00:51:48.019Z,995.61
2022-08-29T00:52:48.062Z,995.58
2022-08-29T00:53:47.942Z,995.61
2022-08-29T00:54:47.982Z,995.60
2022-08-29T00:55:50.262Z,995.60
2022-08-29T00:56:47.996Z,995.61
2022-08-29T00:57:48.141Z,995.58
2022-08-29T00:58:47.853Z,995.63
2022-08-29T00:59:48.151Z,995.58
2022-08-29T01:00:47.919Z,995.61
2022-08-29T01:01:47.938Z,995.59
2022-08-29T01:02:47.965Z,995.61
2022-08-29T01:03:47.926Z,995.65
2022-08-29T01:04:48.089Z,995.65
2022-08-29T01:05:47.773Z,995.65
2022-08-29T01:06:48.212Z,995.64
2022-08-29T01:07:47.749Z,995.67
2022-08-29T01:08:47.811Z,995.63
2022-08-29T01:09:48.003Z,995.65
2022-08-29T01:10:47.820Z,995.62
2022-08-29T01:11:47.775Z,995.64
2022-08-29T01:12:47.881Z,995.61
2022-08-29T01:13:47.778Z,995.60
2022-08-29T01:14:47.981Z,995.59
2022-08-29T01:15:47.867Z,995.60
2022-08-29T01:16:47.924Z,995.58
2022-08-29T01:17:47.763Z,995.58
2022-08-29T01:18:47.910Z,995.63
2022-08-29T01:19:47.823Z,995.60
2022-08-29T01:20:47.700Z,995.58
2022-08-29T01:21:47.754Z,995.62
2022-08-29T01:22:47.804Z,995.64
2022-08-29T01:23:48.002Z,995.63
2022-08-29T01:24:47.553Z,995.61
2022-08-29T01:25:47.822Z,995.62
2022-08-29T01:26:47.822Z,995.67
2022-08-29T01:27:47.644Z,995.66
2022-08-29T01:28:47.843Z,995.68
2022-08-29T01:29:47.934Z,995.64
2022-08-29T01:30:47.629Z,995.63
2022-08-29T01:31:56.906Z,995.67
2022-08-29T01:32:47.602Z,995.64
2022-08-29T01:33:47.634Z,995.66
2022-08-29T01:34:47.874Z,995.68
2022-08-29T01:35:47.599Z,995.68
2022-08-29T01:36:47.689Z,995.65
2022-08-29T01:37:47.854Z,995.60
2022-08-29T01:38:47.880Z,995.61
2022-08-29T01:39:47.816Z,995.60
2022-08-29T01:40:47.710Z,995.57
2022-08-29T01:41:47.717Z,995.60
2022-08-29T01:42:47.578Z,995.62
2022-08-29T01:43:47.705Z,995.58
2022-08-29T01:44:47.544Z,995.60
2022-08-29T01:45:47.761Z,995.63
2022-08-29T01:46:47.601Z,995.61
2022-08-29T01:47:47.577Z,995.62
2022-08-29T01:48:47.494Z,995.62
2022-08-29T01:49:47.783Z,995.63
2022-08-29T01:50:47.659Z,995.62
2022-08-29T01:51:47.542Z,995.64
2022-08-29T01:52:47.400Z,995.66
2022-08-29T01:53:47.466Z,995.67
2022-08-29T01:54:47.430Z,995.65
2022-08-29T01:55:47.398Z,995.67
2022-08-29T01:56:47.448Z,995.69
2022-08-29T01:57:47.497Z,995.68
2022-08-29T01:58:47.517Z,995.75
2022-08-29T01:59:47.711Z,995.70
2022-08-29T02:00:47.430Z,995.68
2022-08-29T02:01:47.364Z,995.68
2022-08-29T02:02:47.389Z,995.73
2022-08-29T02:03:47.707Z,995.71
2022-08-29T02:04:47.453Z,995.71
2022-08-29T02:05:47.327Z,995.74
2022-08-29T02:06:47.361Z,995.73
2022-08-29T02:07:47.602Z,995.74
2022-08-29T02:08:47.291Z,995.71
2022-08-29T02:09:47.508Z,995.76
2022-08-29T02:10:47.528Z,995.74
2022-08-29T02:11:47.296Z,995.73
2022-08-29T02:12:47.287Z,995.73
2022-08-29T02:13:47.168Z,995.72
2022-08-29T02:14:47.251Z,995.73
2022-08-29T02:15:47.071Z,995.75
2022-08-29T02:16:47.675Z,995.74
2022-08-29T02:17:48.492Z,995.75
2022-08-29T02:18:47.277Z,995.77
2022-08-29T02:19:47.602Z,995.72
2022-08-29T02:20:47.320Z,995.72
2022-08-29T02:21:47.514Z,995.71
2022-08-29T02:22:47.274Z,995.76
2022-08-29T02:23:47.281Z,995.74
2022-08-29T02:24:47.326Z,995.74
2022-08-29T02:25:47.167Z,995.78
2022-08-29T02:26:47.320Z,995.79
2022-08-29T02:27:47.187Z,995.82
2022-08-29T02:28:47.191Z,995.75
2022-08-29T02:29:47.562Z,995.77
2022-08-29T02:30:47.231Z,995.75
2022-08-29T02:31:47.251Z,995.75
2022-08-29T02:32:47.171Z,995.77
2022-08-29T02:33:47.241Z,995.75
2022-08-29T02:34:47.782Z,995.74
2022-08-29T02:35:47.063Z,995.74
2022-08-29T02:36:49.102Z,995.70
2022-08-29T02:37:47.254Z,995.69
2022-08-29T02:38:46.984Z,995.71
2022-08-29T02:39:47.198Z,995.71
2022-08-29T02:40:47.234Z,995.75
2022-08-29T02:41:47.337Z,995.74
2022-08-29T02:42:47.220Z,995.73
2022-08-29T02:43:47.167Z,995.75
2022-08-29T02:44:47.207Z,995.73
2022-08-29T02:45:47.158Z,995.77
2022-08-29T02:46:47.474Z,995.77
2022-08-29T02:47:47.147Z,995.78
2022-08-29T02:48:49.290Z,995.82
2022-08-29T02:49:47.179Z,995.80
2022-08-29T02:50:47.030Z,995.85
2022-08-29T02:51:47.124Z,995.86
2022-08-29T02:52:47.233Z,995.87
2022-08-29T02:53:46.974Z,995.86
2022-08-29T02:54:47.122Z,995.85
2022-08-29T02:55:47.067Z,995.88
2022-08-29T02:56:46.998Z,995.87
2022-08-29T02:57:47.129Z,995.87
2022-08-29T02:58:46.734Z,995.86
2022-08-29T02:59:46.724Z,995.85
2022-08-29T03:00:46.781Z,995.91
2022-08-29T03:01:46.769Z,995.88
2022-08-29T03:02:46.692Z,995.91
2022-08-29T03:03:46.696Z,995.88
2022-08-29T03:04:46.866Z,995.90
2022-08-29T03:05:46.698Z,995.91
2022-08-29T03:06:46.886Z,995.93
2022-08-29T03:07:50.725Z,995.93
2022-08-29T03:08:46.643Z,995.98
2022-08-29T03:09:46.631Z,995.95
2022-08-29T03:10:46.624Z,995.99
2022-08-29T03:11:46.635Z,995.96
2022-08-29T03:12:46.616Z,995.93
2022-08-29T03:13:46.610Z,995.92
2022-08-29T03:14:46.591Z,995.91
2022-08-29T03:15:46.654Z,995.90
2022-08-29T03:16:46.578Z,995.86
2022-08-29T03:17:46.565Z,995.89
2022-08-29T03:18:46.565Z,995.89
2022-08-29T03:19:46.560Z,995.88
2022-08-29T03:20:46.557Z,995.87
2022-08-29T03:21:46.543Z,995.85
2022-08-29T03:22:46.537Z,995.84
2022-08-29T03:23:46.539Z,995.82
2022-08-29T03:24:46.568Z,995.84
2022-08-29T03:25:46.526Z,995.83
2022-08-29T03:26:46.719Z,995.84
2022-08-29T03:27:46.488Z,995.86
2022-08-29T03:28:46.499Z,995.87
2022-08-29T03:29:46.479Z,995.86
2022-08-29T03:30:46.470Z,995.85
2022-08-29T03:31:46.539Z,995.90
2022-08-29T03:32:46.456Z,995.91
2022-08-29T03:33:46.471Z,995.87
2022-08-29T03:34:46.440Z,995.88
2022-08-29T03:35:46.443Z,995.88
2022-08-29T03:36:46.428Z,995.87
2022-08-29T03:37:46.421Z,995.88
2022-08-29T03:38:46.634Z,995.86
2022-08-29T03:39:46.417Z,995.88
2022-08-29T03:40:46.423Z,995.88
2022-08-29T03:41:46.602Z,995.90
2022-08-29T03:42:46.376Z,995.90
2022-08-29T03:43:46.375Z,995.87
2022-08-29T03:44:46.377Z,995.82
2022-08-29T03:45:46.361Z,995.85
2022-08-29T03:46:46.392Z,995.87
2022-08-29T03:47:46.340Z,995.84
2022-08-29T03:48:46.345Z,995.82
2022-08-29T03:49:46.539Z,995.84
2022-08-29T03:50:46.335Z,995.85
2022-08-29T03:51:46.318Z,995.80
2022-08-29T03:52:46.296Z,995.84
2022-08-29T03:53:46.314Z,995.89
2022-08-29T03:54:46.294Z,995.88
2022-08-29T03:55:46.288Z,995.87
2022-08-29T03:56:46.270Z,995.90
2022-08-29T03:57:46.272Z,995.95
2022-08-29T03:58:50.417Z,995.94
2022-08-29T03:59:46.238Z,995.93
2022-08-29T04:00:46.243Z,995.95
2022-08-29T04:01:46.286Z,995.97
2022-08-29T04:02:46.297Z,995.96
2022-08-29T04:03:46.221Z,996.01
2022-08-29T04:04:46.218Z,996.02
2022-08-29T04:05:46.204Z,995.99
2022-08-29T04:06:46.197Z,996.01
2022-08-29T04:07:46.191Z,996.02
2022-08-29T04:08:46.182Z,996.01
2022-08-29T04:09:46.169Z,996.01
2022-08-29T04:10:46.179Z,996.01
2022-08-29T04:11:46.147Z,996.01
2022-08-29T04:12:46.151Z,996.03
2022-08-29T04:13:46.139Z,996.03
2022-08-29T04:14:46.131Z,996.03
2022-08-29T04:15:46.230Z,996.06
2022-08-29T04:16:46.121Z,996.10
2022-08-29T04:17:53.358Z,996.10
2022-08-29T04:18:46.109Z,996.09
2022-08-29T04:19:46.086Z,996.11
2022-08-29T04:20:46.081Z,996.11
2022-08-29T04:21:46.072Z,996.15
2022-08-29T04:22:46.070Z,996.11
2022-08-29T04:23:46.054Z,996.15
2022-08-29T04:24:46.061Z,996.10
2022-08-29T04:25:46.043Z,996.13
2022-08-29T04:26:46.062Z,996.10
2022-08-29T04:27:46.022Z,996.06
2022-08-29T04:28:46.022Z,996.07
2022-08-29T04:29:46.008Z,996.07
2022-08-29T04:30:50.384Z,996.06
2022-08-29T04:31:46.022Z,996.05
2022-08-29T04:32:45.990Z,996.09
2022-08-29T04:33:46.008Z,996.05
2022-08-29T04:34:45.966Z,996.08
2022-08-29T04:35:45.986Z,996.07
2022-08-29T04:36:45.973Z,996.11
2022-08-29T04:37:45.975Z,996.12
2022-08-29T04:38:45.941Z,996.14
2022-08-29T04:39:45.928Z,996.17
2022-08-29T04:40:45.945Z,996.22
2022-08-29T04:41:45.921Z,996.23
2022-08-29T04:42:45.904Z,996.23
2022-08-29T04:43:45.901Z,996.25
2022-08-29T04:44:45.897Z,996.23
2022-08-29T04:45:45.882Z,996.27
2022-08-29T04:46:45.909Z,996.27
2022-08-29T04:47:45.993Z,996.27
2022-08-29T04:48:45.863Z,996.20
2022-08-29T04:49:45.858Z,996.21
2022-08-29T04:50:46.062Z,996.23
2022-08-29T04:51:46.121Z,996.24
2022-08-29T04:52:45.893Z,996.24
2022-08-29T04:53:46.062Z,996.26
2022-08-29T04:54:45.876Z,996.30
2022-08-29T04:55:45.969Z,996.24
2022-08-29T04:56:47.363Z,996.27
2022-08-29T04:57:45.970Z,996.29
2022-08-29T04:58:45.990Z,996.31
2022-08-29T04:59:45.788Z,996.30
2022-08-29T05:00:45.828Z,996.30
2022-08-29T05:01:45.851Z,996.26
2022-08-29T05:02:46.041Z,996.29
2022-08-29T05:03:46.065Z,996.29
2022-08-29T05:04:45.999Z,996.31
2022-08-29T05:05:45.820Z,996.30
2022-08-29T05:06:45.946Z,996.34
2022-08-29T05:07:45.901Z,996.33
2022-08-29T05:08:45.880Z,996.31
2022-08-29T05:09:45.803Z,996.35
2022-08-29T05:10:45.846Z,996.36
2022-08-29T05:11:45.813Z,996.34
2022-08-29T05:12:45.779Z,996.36
2022-08-29T05:13:45.906Z,996.37
2022-08-29T05:14:45.843Z,996.34
2022-08-29T05:15:46.021Z,996.37
2022-08-29T05:16:45.859Z,996.37
2022-08-29T05:17:45.659Z,996.36
2022-08-29T05:18:45.694Z,996.32
2022-08-29T05:19:45.652Z,996.37
2022-08-29T05:20:45.715Z,996.40
2022-08-29T05:21:45.721Z,996.43
2022-08-29T05:22:45.729Z,996.41
2022-08-29T05:23:45.780Z,996.42
2022-08-29T05:24:45.707Z,996.42
2022-08-29T05:25:45.801Z,996.42
2022-08-29T05:26:45.678Z,996.43
2022-08-29T05:27:45.855Z,996.39
2022-08-29T05:28:45.652Z,996.41
2022-08-29T05:29:45.575Z,996.44
2022-08-29T05:30:45.888Z,996.44
2022-08-29T05:31:45.866Z,996.46
2022-08-29T05:32:45.711Z,996.45
2022-08-29T05:33:45.738Z,996.45
2022-08-29T05:34:45.706Z,996.48
2022-08-29T05:35:45.663Z,996.49
2022-08-29T05:36:45.689Z,996.46
2022-08-29T05:37:45.649Z,996.47
2022-08-29T05:38:45.758Z,996.49
2022-08-29T05:39:45.728Z,996.48
2022-08-29T05:40:45.593Z,996.50
2022-08-29T05:41:45.627Z,996.49
2022-08-29T05:42:45.581Z,996.47
2022-08-29T05:43:45.714Z,996.47
2022-08-29T05:44:45.672Z,996.49
2022-08-29T05:45:45.519Z,996.54
2022-08-29T05:46:45.656Z,996.53
2022-08-29T05:47:45.460Z,996.56
2022-08-29T05:48:45.621Z,996.57
2022-08-29T05:49:45.463Z,996.58
2022-08-29T05:50:45.604Z,996.60
2022-08-29T05:51:45.508Z,996.64
2022-08-29T05:52:45.572Z,996.61
2022-08-29T05:53:45.558Z,996.61
2022-08-29T05:54:45.496Z,996.61
2022-08-29T05:55:45.505Z,996.63
2022-08-29T05:56:45.663Z,996.62
2022-08-29T05:57:45.526Z,996.63
2022-08-29T05:58:45.447Z,996.61
2022-08-29T05:59:45.452Z,996.60
2022-08-29T06:00:45.564Z,996.57
2022-08-29T06:01:45.356Z,996.56
2022-08-29T06:02:45.725Z,996.58
2022-08-29T06:03:46.184Z,996.58
2022-08-29T06:04:45.530Z,996.57
2022-08-29T06:05:45.595Z,996.54
2022-08-29T06:06:45.582Z,996.54
2022-08-29T06:07:45.492Z,996.58
2022-08-29T06:08:45.349Z,996.58
2022-08-29T06:09:45.558Z,996.61
2022-08-29T06:10:45.412Z,996.60
2022-08-29T06:11:45.447Z,996.58
2022-08-29T06:12:45.356Z,996.58
2022-08-29T06:13:46.109Z,996.53
2022-08-29T06:14:50.292Z,996.54
2022-08-29T06:15:45.461Z,996.50
2022-08-29T06:16:45.338Z,996.51
2022-08-29T06:17:45.252Z,996.50
2022-08-29T06:18:45.541Z,996.49
2022-08-29T06:19:45.311Z,996.50
2022-08-29T06:20:45.455Z,996.54
2022-08-29T06:21:45.433Z,996.49
2022-08-29T06:22:45.308Z,996.54
2022-08-29T06:23:45.353Z,996.54
2022-08-29T06:24:45.356Z,996.54
2022-08-29T06:25:45.341Z,996.57
2022-08-29T06:26:45.409Z,996.59
2022-08-29T06:27:45.337Z,996.60
2022-08-29T06:28:45.349Z,996.57
2022-08-29T06:29:45.402Z,996.62
2022-08-29T06:30:45.404Z,996.58
2022-08-29T06:31:45.536Z,996.62
2022-08-29T06:32:45.282Z,996.59
2022-08-29T06:33:45.405Z,996.62
2022-08-29T06:34:45.237Z,996.59
2022-08-29T06:35:45.272Z,996.63
2022-08-29T06:36:45.315Z,996.64
2022-08-29T06:37:45.315Z,996.63
2022-08-29T06:38:45.248Z,996.64
2022-08-29T06:39:45.208Z,996.68
2022-08-29T06:40:45.255Z,996.69
2022-08-29T06:41:45.147Z,996.68
2022-08-29T06:42:45.213Z,996.71
2022-08-29T06:43:45.187Z,996.72
2022-08-29T06:44:45.212Z,996.72
2022-08-29T06:45:45.217Z,996.72
2022-08-29T06:46:45.168Z,996.70
2022-08-29T06:47:45.373Z,996.70
2022-08-29T06:48:45.178Z,996.72
2022-08-29T06:49:45.257Z,996.72
2022-08-29T06:50:45.763Z,996.71
2022-08-29T06:51:45.112Z,996.69
2022-08-29T06:52:47.121Z,996.71
2022-08-29T06:53:45.170Z,996.69
2022-08-29T06:54:45.125Z,996.69
2022-08-29T06:55:45.089Z,996.68
2022-08-29T06:56:45.204Z,996.69
2022-08-29T06:57:45.229Z,996.69
2022-08-29T06:58:45.121Z,996.68
2022-08-29T06:59:45.263Z,996.66
2022-08-29T07:00:49.548Z,996.72
2022-08-29T07:01:45.282Z,996.69
2022-08-29T07:02:45.561Z,996.68
2022-08-29T07:03:45.106Z,996.70
2022-08-29T07:04:45.042Z,996.72
2022-08-29T07:05:45.020Z,996.69
2022-08-29T07:06:45.157Z,996.72
2022-08-29T07:07:45.451Z,996.72
2022-08-29T07:08:55.062Z,996.70
2022-08-29T07:09:45.080Z,996.74
2022-08-29T07:10:45.054Z,996.71
2022-08-29T07:11:45.048Z,996.72
2022-08-29T07:12:45.081Z,996.70
2022-08-29T07:13:45.170Z,996.66
2022-08-29T07:14:45.223Z,996.67
2022-08-29T07:15:45.178Z,996.66
2022-08-29T07:16:45.061Z,996.70
2022-08-29T07:17:45.071Z,996.67
2022-08-29T07:18:44.920Z,996.64
2022-08-29T07:19:45.020Z,996.67
2022-08-29T07:20:45.176Z,996.69
2022-08-29T07:21:44.993Z,996.68
2022-08-29T07:22:44.991Z,996.66
2022-08-29T07:23:45.011Z,996.68
2022-08-29T07:24:45.058Z,996.68
2022-08-29T07:25:44.994Z,996.71
2022-08-29T07:26:44.980Z,996.72
2022-08-29T07:27:44.965Z,996.76
2022-08-29T07:28:46.193Z,996.72
2022-08-29T07:29:50.062Z,996.71
2022-08-29T07:30:45.086Z,996.70
2022-08-29T07:31:45.271Z,996.72
2022-08-29T07:32:44.912Z,996.71
2022-08-29T07:33:44.957Z,996.73
2022-08-29T07:34:44.912Z,996.73
2022-08-29T07:35:44.877Z,996.70
2022-08-29T07:36:44.956Z,996.68
2022-08-29T07:37:50.225Z,996.71
2022-08-29T07:38:45.107Z,996.73
2022-08-29T07:39:44.893Z,996.72
2022-08-29T07:40:44.970Z,996.75
2022-08-29T07:41:44.812Z,996.77
2022-08-29T07:42:44.995Z,996.81
2022-08-29T07:43:45.228Z,996.78
2022-08-29T07:44:45.123Z,996.81
2022-08-29T07:45:45.155Z,996.82
2022-08-29T07:46:45.050Z,996.82
2022-08-29T07:47:44.902Z,996.81
2022-08-29T07:48:44.982Z,996.83
2022-08-29T07:49:44.890Z,996.81
2022-08-29T07:50:44.881Z,996.78
2022-08-29T07:51:45.046Z,996.88
2022-08-29T07:52:44.873Z,997.02
2022-08-29T07:53:44.795Z,997.15
2022-08-29T07:54:44.979Z,997.23
2022-08-29T07:55:44.863Z,997.24
2022-08-29T07:56:45.002Z,997.28
2022-08-29T07:57:44.964Z,997.25
2022-08-29T07:58:44.953Z,997.24
2022-08-29T07:59:44.796Z,997.22
2022-08-29T08:00:45.105Z,997.27
2022-08-29T08:01:44.955Z,997.20
2022-08-29T08:02:44.951Z,997.28
2022-08-29T08:03:44.894Z,997.15
2022-08-29T08:04:44.961Z,996.99
2022-08-29T08:05:45.138Z,996.93
2022-08-29T08:06:44.989Z,996.94
2022-08-29T08:07:44.860Z,997.07
2022-08-29T08:08:44.857Z,997.22
2022-08-29T08:09:44.905Z,997.24
2022-08-29T08:10:47.876Z,997.12
2022-08-29T08:11:44.860Z,997.01
2022-08-29T08:12:44.795Z,996.93
2022-08-29T08:13:44.762Z,996.91
2022-08-29T08:14:45.214Z,996.96
2022-08-29T08:15:44.956Z,996.98
2022-08-29T08:16:45.006Z,997.13
2022-08-29T08:17:45.011Z,997.16
2022-08-29T08:18:44.834Z,997.00
2022-08-29T08:19:44.763Z,996.92
2022-08-29T08:20:44.825Z,996.95
2022-08-29T08:21:49.833Z,996.94
2022-08-29T08:22:44.851Z,997.01
2022-08-29T08:23:44.761Z,997.00
2022-08-29T08:24:44.855Z,996.96
2022-08-29T08:25:44.775Z,996.99
2022-08-29T08:26:44.784Z,996.99
2022-08-29T08:27:44.769Z,997.00
2022-08-29T08:28:44.914Z,997.03
2022-08-29T08:29:44.911Z,997.01
2022-08-29T08:30:45.093Z,997.02
2022-08-29T08:31:44.823Z,996.99
2022-08-29T08:32:47.428Z,996.98
2022-08-29T08:33:45.152Z,997.01
2022-08-29T08:34:45.089Z,997.05
2022-08-29T08:35:47.000Z,996.97
2022-08-29T08:36:44.934Z,996.96
2022-08-29T08:37:44.890Z,996.91
2022-08-29T08:38:45.254Z,996.91
2022-08-29T08:39:45.158Z,996.92
2022-08-29T08:40:44.909Z,996.91
2022-08-29T08:41:45.000Z,996.90
2022-08-29T08:42:44.896Z,996.88
2022-08-29T08:43:44.773Z,996.90
2022-08-29T08:44:45.084Z,996.91
2022-08-29T08:45:45.002Z,996.89
2022-08-29T08:46:44.839Z,996.90
2022-08-29T08:47:44.898Z,996.85
2022-08-29T08:48:44.776Z,996.81
2022-08-29T08:49:44.927Z,996.79
2022-08-29T08:50:44.919Z,996.81
2022-08-29T08:51:44.812Z,996.83
2022-08-29T08:52:44.792Z,996.79
2022-08-29T08:53:44.886Z,996.78
2022-08-29T08:54:44.816Z,996.78
2022-08-29T08:55:44.996Z,996.80
2022-08-29T08:56:44.879Z,996.75
2022-08-29T08:57:44.785Z,996.77
2022-08-29T08:58:44.973Z,996.78
2022-08-29T08:59:44.986Z,996.78
2022-08-29T09:00:44.906Z,996.77
2022-08-29T09:01:44.952Z,996.75
2022-08-29T09:02:44.875Z,996.74
2022-08-29T09:03:44.904Z,996.71
2022-08-29T09:04:44.974Z,996.65
2022-08-29T09:05:48.961Z,996.69
2022-08-29T09:06:44.869Z,996.70
2022-08-29T09:07:44.832Z,996.73
2022-08-29T09:08:44.849Z,996.71
2022-08-29T09:09:44.872Z,996.72
2022-08-29T09:10:44.796Z,996.73
2022-08-29T09:11:44.812Z,996.69
2022-08-29T09:12:45.038Z,996.71
2022-08-29T09:13:45.067Z,996.71
2022-08-29T09:14:44.895Z,996.68
2022-08-29T09:15:44.937Z,996.68
2022-08-29T09:16:44.779Z,996.67
2022-08-29T09:17:44.789Z,996.69
2022-08-29T09:18:49.904Z,996.63
2022-08-29T09:19:44.935Z,996.65
2022-08-29T09:20:44.793Z,996.62
2022-08-29T09:21:44.761Z,996.68
2022-08-29T09:22:44.870Z,996.66
2022-08-29T09:23:44.800Z,996.69
2022-08-29T09:24:44.827Z,996.72
2022-08-29T09:25:44.826Z,996.73
2022-08-29T09:26:44.761Z,996.69
2022-08-29T09:27:44.769Z,996.67
2022-08-29T09:28:44.788Z,996.67
2022-08-29T09:29:45.035Z,996.64
2022-08-29T09:30:44.957Z,996.62
2022-08-29T09:31:44.786Z,996.64
2022-08-29T09:32:44.948Z,996.61
2022-08-29T09:33:44.936Z,996.60
2022-08-29T09:35:07.493Z,996.62
2022-08-29T09:35:44.786Z,996.59
2022-08-29T09:36:47.485Z,996.65
2022-08-29T09:37:44.820Z,996.71
2022-08-29T09:38:44.714Z,996.68
2022-08-29T09:39:46.814Z,996.69
2022-08-29T09:40:44.807Z,996.69
2022-08-29T09:41:44.725Z,996.69
2022-08-29T09:42:44.824Z,996.69
2022-08-29T09:43:45.047Z,996.65
2022-08-29T09:44:44.730Z,996.73
2022-08-29T09:45:44.919Z,996.75
2022-08-29T09:46:44.868Z,996.75
2022-08-29T09:47:44.735Z,996.74
2022-08-29T09:48:44.802Z,996.67
2022-08-29T09:49:44.809Z,996.68
2022-08-29T09:50:44.803Z,996.67
2022-08-29T09:51:44.757Z,996.67
2022-08-29T09:52:44.705Z,996.67
2022-08-29T09:53:44.734Z,996.64
2022-08-29T09:54:44.796Z,996.66
2022-08-29T09:55:44.757Z,996.65
2022-08-29T09:56:45.003Z,996.64
2022-08-29T09:57:44.731Z,996.68
2022-08-29T09:58:44.723Z,996.68
2022-08-29T09:59:45.315Z,996.64
2022-08-29T10:00:44.945Z,996.67
2022-08-29T10:01:44.708Z,996.69
2022-08-29T10:02:44.889Z,996.69
2022-08-29T10:03:44.659Z,996.67
2022-08-29T10:04:44.742Z,996.68
2022-08-29T10:05:44.794Z,996.65
2022-08-29T10:06:49.502Z,996.65
2022-08-29T10:07:44.686Z,996.62
2022-08-29T10:08:44.633Z,996.60
2022-08-29T10:09:44.670Z,996.62
2022-08-29T10:10:44.650Z,996.63
2022-08-29T10:11:44.661Z,996.60
2022-08-29T10:12:44.670Z,996.61
2022-08-29T10:13:44.625Z,996.60
2022-08-29T10:14:49.830Z,996.59
2022-08-29T10:15:50.850Z,996.60
2022-08-29T10:16:44.757Z,996.60
2022-08-29T10:17:44.634Z,996.56
2022-08-29T10:18:44.651Z,996.58
2022-08-29T10:19:44.732Z,996.55
2022-08-29T10:20:44.640Z,996.54
2022-08-29T10:21:44.628Z,996.54
2022-08-29T10:22:44.635Z,996.60
2022-08-29T10:23:44.616Z,996.60
2022-08-29T10:24:44.681Z,996.60
2022-08-29T10:25:44.640Z,996.64
2022-08-29T10:26:44.599Z,996.64
2022-08-29T10:27:44.723Z,996.65
2022-08-29T10:28:44.598Z,996.63
2022-08-29T10:29:44.711Z,996.60
2022-08-29T10:30:44.652Z,996.62
2022-08-29T10:31:44.703Z,996.66
2022-08-29T10:32:44.635Z,996.65
2022-08-29T10:33:44.689Z,996.68
2022-08-29T10:34:44.603Z,996.70
2022-08-29T10:35:44.605Z,996.66
2022-08-29T10:36:44.617Z,996.70
2022-08-29T10:37:44.635Z,996.60
2022-08-29T10:38:44.646Z,996.67
2022-08-29T10:39:44.715Z,996.64
2022-08-29T10:40:44.646Z,996.66
2022-08-29T10:41:49.639Z,996.62
2022-08-29T10:42:44.728Z,996.63
2022-08-29T10:43:44.586Z,996.57
2022-08-29T10:44:44.614Z,996.52
2022-08-29T10:45:44.698Z,996.58
2022-08-29T10:46:44.786Z,996.51
2022-08-29T10:47:44.583Z,996.48
2022-08-29T10:48:44.559Z,996.49
2022-08-29T10:49:45.034Z,996.47
2022-08-29T10:50:45.730Z,996.47
2022-08-29T10:51:44.618Z,996.50
2022-08-29T10:52:44.575Z,996.48
2022-08-29T10:53:44.664Z,996.45
2022-08-29T10:54:44.567Z,996.49
2022-08-29T10:55:44.643Z,996.49
2022-08-29T10:56:44.561Z,996.47
2022-08-29T10:57:44.588Z,996.48
2022-08-29T10:58:44.540Z,996.47
2022-08-29T10:59:44.567Z,996.43
2022-08-29T11:00:44.638Z,996.40
2022-08-29T11:01:44.641Z,996.40
2022-08-29T11:02:44.632Z,996.39
2022-08-29T11:03:44.580Z,996.37
2022-08-29T11:04:44.527Z,996.40
2022-08-29T11:05:44.663Z,996.37
2022-08-29T11:06:44.577Z,996.39
2022-08-29T11:07:44.536Z,996.40
2022-08-29T11:08:44.517Z,996.42
2022-08-29T11:09:44.530Z,996.41
2022-08-29T11:10:44.567Z,996.39
2022-08-29T11:11:44.531Z,996.40
2022-08-29T11:12:44.592Z,996.40
2022-08-29T11:13:44.535Z,996.34
2022-08-29T11:14:44.721Z,996.36
2022-08-29T11:15:44.604Z,996.40
2022-08-29T11:16:44.543Z,996.45
2022-08-29T11:17:44.606Z,996.41
2022-08-29T11:18:44.905Z,996.43
2022-08-29T11:19:44.494Z,996.44
2022-08-29T11:20:44.606Z,996.45
2022-08-29T11:21:44.495Z,996.45
2022-08-29T11:22:44.583Z,996.43
2022-08-29T11:23:44.562Z,996.40
2022-08-29T11:24:47.190Z,996.37
2022-08-29T11:25:44.553Z,996.37
2022-08-29T11:26:44.530Z,996.36
2022-08-29T11:27:44.492Z,996.37
2022-08-29T11:29:44.696Z,996.38
2022-08-29T11:30:47.925Z,996.43
2022-08-29T11:31:44.552Z,996.44
2022-08-29T11:32:44.465Z,996.41
2022-08-29T11:33:44.466Z,996.37
2022-08-29T11:34:44.476Z,996.39
2022-08-29T11:35:44.461Z,996.35
2022-08-29T11:36:44.510Z,996.37
2022-08-29T11:37:44.507Z,996.39
2022-08-29T11:38:44.602Z,996.35
2022-08-29T11:39:44.444Z,996.34
2022-08-29T11:40:48.289Z,996.32
2022-08-29T11:41:44.591Z,996.32
2022-08-29T11:42:52.145Z,996.32
2022-08-29T11:43:44.496Z,996.31
2022-08-29T11:44:44.543Z,996.33
2022-08-29T11:45:44.726Z,996.33
2022-08-29T11:46:44.807Z,996.32
2022-08-29T11:47:44.600Z,996.38
2022-08-29T11:48:44.596Z,996.37
2022-08-29T11:49:44.458Z,996.37
2022-08-29T11:50:44.501Z,996.35
2022-08-29T11:51:44.411Z,996.38
2022-08-29T11:52:44.408Z,996.38
2022-08-29T11:53:44.439Z,996.34
2022-08-29T11:54:44.465Z,996.37
2022-08-29T11:55:44.404Z,996.37
2022-08-29T11:56:44.461Z,996.35
2022-08-29T11:57:44.407Z,996.36
2022-08-29T11:58:46.289Z,996.37
2022-08-29T11:59:44.405Z,996.40
2022-08-29T12:00:44.417Z,996.38
2022-08-29T12:01:44.467Z,996.36
2022-08-29T12:02:48.839Z,996.39
2022-08-29T12:03:44.386Z,996.35
2022-08-29T12:04:44.393Z,996.37
2022-08-29T12:05:44.425Z,996.35
2022-08-29T12:06:44.387Z,996.34
2022-08-29T12:07:44.400Z,996.32
2022-08-29T12:08:44.358Z,996.33
2022-08-29T12:09:44.368Z,996.30
2022-08-29T12:10:44.390Z,996.33
2022-08-29T12:11:44.376Z,996.34
2022-08-29T12:12:44.374Z,996.25
2022-08-29T12:13:44.397Z,996.29
2022-08-29T12:14:44.351Z,996.28
2022-08-29T12:15:44.416Z,996.33
2022-08-29T12:16:44.494Z,996.31
2022-08-29T12:18:01.321Z,996.27
2022-08-29T12:18:44.351Z,996.30
2022-08-29T12:19:44.361Z,996.23
2022-08-29T12:20:44.371Z,996.24
2022-08-29T12:21:44.348Z,996.27
2022-08-29T12:23:44.324Z,996.26
2022-08-29T12:24:44.332Z,996.26
2022-08-29T12:25:44.331Z,996.22
2022-08-29T12:26:44.325Z,996.19
2022-08-29T12:27:44.360Z,996.17
2022-08-29T12:28:44.330Z,996.14
2022-08-29T12:29:44.950Z,996.15
2022-08-29T12:30:44.341Z,996.15